createdAt,value
2019-05-30T00:00:42.216Z,2.30
2019-05-30T00:03:09.159Z,2.43
2019-05-30T00:05:35.889Z,3.63
2019-05-30T00:08:02.877Z,4.63
2019-05-30T00:10:29.592Z,5.97
2019-05-30T00:12:56.713Z,7.00
2019-05-30T00:15:24.111Z,4.47
2019-05-30T00:17:50.732Z,4.10
2019-05-30T00:20:17.490Z,2.83
2019-05-30T00:22:44.120Z,8.83
2019-05-30T00:26:07.618Z,3.97
2019-05-30T00:28:34.458Z,5.73
2019-05-30T00:31:02.489Z,4.73
2019-05-30T00:33:29.401Z,7.23
2019-05-30T00:35:56.064Z,4.13
2019-05-30T00:38:22.780Z,5.87
2019-05-30T00:40:49.658Z,5.27
2019-05-30T00:43:16.325Z,3.77
2019-05-30T00:45:42.986Z,5.87
2019-05-30T00:48:11.058Z,5.43
2019-05-30T00:50:37.705Z,5.83
2019-05-30T00:53:05.362Z,8.03
2019-05-30T00:55:32.430Z,6.13
2019-05-30T00:58:00.301Z,5.30
2019-05-30T01:00:42.025Z,3.67
2019-05-30T01:02:59.383Z,4.17
2019-05-30T01:05:27.214Z,4.67
2019-05-30T01:07:54.064Z,3.53
2019-05-30T01:10:20.986Z,5.00
2019-05-30T01:12:47.658Z,4.77
2019-05-30T01:15:15.081Z,10.57
2019-05-30T01:17:41.777Z,5.53
2019-05-30T01:20:09.711Z,11.57
2019-05-30T01:22:36.663Z,11.10
2019-05-30T01:25:06.077Z,7.93
2019-05-30T01:27:33.409Z,8.37
2019-05-30T01:30:01.525Z,3.37
2019-05-30T01:32:29.947Z,10.37
2019-05-30T01:34:59.581Z,5.03
2019-05-30T01:37:26.910Z,4.33
2019-05-30T01:39:55.308Z,7.17
2019-05-30T01:42:23.674Z,3.80
2019-05-30T01:44:50.441Z,4.27
2019-05-30T01:47:17.198Z,4.83
2019-05-30T01:49:43.944Z,4.80
2019-05-30T01:52:10.611Z,6.60
2019-05-30T01:54:37.269Z,3.67
2019-05-30T01:57:04.655Z,5.23
2019-05-30T01:59:31.560Z,6.83
2019-05-30T02:02:55.736Z,4.20
2019-05-30T02:05:22.651Z,6.97
2019-05-30T02:07:49.334Z,4.40
2019-05-30T02:10:16.340Z,4.80
2019-05-30T02:12:42.987Z,5.93
2019-05-30T02:16:07.822Z,3.73
2019-05-30T02:18:34.952Z,3.47
2019-05-30T02:21:02.168Z,2.83
2019-05-30T02:23:29.052Z,6.13
2019-05-30T02:25:55.634Z,4.83
2019-05-30T02:28:22.345Z,4.87
2019-05-30T02:30:49.140Z,4.03
2019-05-30T02:33:15.766Z,2.90
2019-05-30T02:35:42.507Z,3.77
2019-05-30T02:38:10.029Z,4.27
2019-05-30T02:40:37.983Z,5.53
2019-05-30T02:43:07.629Z,5.67
2019-05-30T02:45:34.959Z,2.90
2019-05-30T02:48:03.066Z,4.00
2019-05-30T02:50:30.703Z,7.30
2019-05-30T02:52:57.353Z,5.33
2019-05-30T02:55:24.267Z,4.03
2019-05-30T02:57:50.905Z,4.47
2019-05-30T03:00:23.196Z,5.57
2019-05-30T03:02:49.943Z,5.13
2019-05-30T03:05:17.793Z,5.43
2019-05-30T03:07:44.752Z,3.13
2019-05-30T03:10:14.871Z,3.53
2019-05-30T03:12:41.164Z,4.10
2019-05-30T03:15:11.458Z,6.13
2019-05-30T03:17:37.288Z,3.73
2019-05-30T03:20:13.663Z,4.60
2019-05-30T03:22:34.078Z,3.67
2019-05-30T03:25:02.964Z,5.57
2019-05-30T03:27:29.806Z,13.57
2019-05-30T03:29:56.650Z,7.30
2019-05-30T03:33:02.195Z,7.03
2019-05-30T03:34:53.107Z,7.60
2019-05-30T03:37:28.751Z,7.67
2019-05-30T03:39:48.495Z,7.80
2019-05-30T03:42:16.139Z,3.17
2019-05-30T03:44:43.123Z,7.40
2019-05-30T03:47:15.583Z,5.37
2019-05-30T03:49:46.869Z,3.63
2019-05-30T03:52:17.270Z,3.10
2019-05-30T03:54:45.461Z,4.63
2019-05-30T03:57:17.876Z,5.10
2019-05-30T03:59:48.311Z,4.97
2019-05-30T04:02:20.902Z,12.63
2019-05-30T04:04:53.264Z,7.20
2019-05-30T04:07:25.612Z,8.47
2019-05-30T04:09:56.034Z,10.87
2019-05-30T04:12:28.529Z,8.13
2019-05-30T04:15:00.796Z,5.67
2019-05-30T04:17:27.402Z,9.53
2019-05-30T04:19:53.965Z,3.87
2019-05-30T04:22:21.883Z,7.27
2019-05-30T04:24:48.616Z,6.70
2019-05-30T04:27:16.098Z,5.23
2019-05-30T04:29:46.644Z,6.10
2019-05-30T04:32:14.414Z,8.33
2019-05-30T04:34:41.313Z,5.20
2019-05-30T04:37:08.315Z,8.50
2019-05-30T04:39:35.426Z,9.23
2019-05-30T04:42:02.278Z,6.90
2019-05-30T04:44:31.940Z,8.10
2019-05-30T04:46:58.529Z,6.17
2019-05-30T04:49:25.245Z,4.63
2019-05-30T04:51:51.888Z,4.20
2019-05-30T04:54:19.138Z,9.57
2019-05-30T04:56:47.198Z,3.87
2019-05-30T04:59:15.248Z,4.50
2019-05-30T05:01:42.385Z,5.13
2019-05-30T05:04:08.952Z,3.87
2019-05-30T05:06:35.811Z,8.03
2019-05-30T05:09:05.284Z,4.77
2019-05-30T05:11:32.008Z,11.13
2019-05-30T05:13:58.795Z,8.27
2019-05-30T05:16:34.970Z,6.30
2019-05-30T05:18:53.928Z,7.37
2019-05-30T05:21:21.061Z,6.27
2019-05-30T05:23:47.791Z,4.90
2019-05-30T05:26:15.425Z,2.63
2019-05-30T05:28:42.381Z,6.33
2019-05-30T05:31:09.323Z,8.37
2019-05-30T05:34:32.021Z,3.50
2019-05-30T05:36:58.796Z,7.17
2019-05-30T05:39:25.567Z,7.83
2019-05-30T05:41:52.139Z,5.47
2019-05-30T05:44:18.710Z,9.70
2019-05-30T05:46:45.651Z,8.57
2019-05-30T05:49:12.230Z,5.10
2019-05-30T05:51:38.895Z,4.10
2019-05-30T05:54:05.570Z,6.50
2019-05-30T05:56:32.362Z,5.90
2019-05-30T05:58:59.231Z,8.53
2019-05-30T06:01:25.969Z,5.53
2019-05-30T06:03:52.579Z,6.73
2019-05-30T06:06:21.317Z,5.53
2019-05-30T06:08:49.359Z,7.30
2019-05-30T06:11:16.557Z,5.30
2019-05-30T06:13:43.757Z,6.47
2019-05-30T06:17:07.012Z,5.80
2019-05-30T06:19:46.001Z,10.43
2019-05-30T06:22:04.693Z,4.67
2019-05-30T06:24:32.394Z,5.90
2019-05-30T06:26:59.266Z,4.07
2019-05-30T06:29:26.272Z,5.90
2019-05-30T06:31:53.185Z,8.27
2019-05-30T06:34:31.361Z,3.27
2019-05-30T06:36:48.601Z,8.20
2019-05-30T06:39:15.348Z,4.07
2019-05-30T06:41:42.043Z,8.67
2019-05-30T06:44:08.681Z,6.23
2019-05-30T06:46:35.337Z,6.03
2019-05-30T06:49:02.290Z,3.57
2019-05-30T06:51:29.199Z,6.07
2019-05-30T06:53:55.981Z,8.30
2019-05-30T06:56:23.295Z,4.13
2019-05-30T06:58:50.195Z,4.77
2019-05-30T07:01:16.860Z,5.00
2019-05-30T07:03:43.898Z,2.63
2019-05-30T07:06:11.329Z,7.20
2019-05-30T07:08:38.603Z,6.07
2019-05-30T07:11:05.381Z,2.70
2019-05-30T07:13:33.694Z,4.80
2019-05-30T07:16:00.807Z,9.00
2019-05-30T07:18:31.014Z,4.53
2019-05-30T07:20:57.614Z,5.97
2019-05-30T07:23:25.746Z,4.37
2019-05-30T07:25:52.712Z,8.30
2019-05-30T07:28:19.714Z,6.13
2019-05-30T07:30:46.396Z,3.20
2019-05-30T07:33:13.173Z,4.13
2019-05-30T07:35:39.857Z,7.27
2019-05-30T07:38:06.580Z,4.10
2019-05-30T07:40:33.349Z,3.83
2019-05-30T07:43:00.252Z,5.60
2019-05-30T07:45:27.305Z,7.97
2019-05-30T07:47:53.847Z,11.17
2019-05-30T07:50:21.868Z,4.27
2019-05-30T07:52:48.849Z,3.67
2019-05-30T07:55:17.916Z,6.10
2019-05-30T07:57:44.587Z,4.47
2019-05-30T08:00:14.672Z,3.53
2019-05-30T08:02:42.197Z,8.97
2019-05-30T08:05:23.706Z,7.27
2019-05-30T08:07:39.073Z,10.63
2019-05-30T08:10:10.374Z,3.93
2019-05-30T08:12:38.258Z,5.47
2019-05-30T08:15:10.000Z,6.30
2019-05-30T08:17:37.865Z,6.40
2019-05-30T08:20:07.392Z,5.77
2019-05-30T08:22:34.229Z,8.13
2019-05-30T08:25:01.169Z,8.07
2019-05-30T08:27:28.097Z,2.63
2019-05-30T08:29:55.261Z,3.20
2019-05-30T08:32:21.963Z,7.07
2019-05-30T08:34:48.558Z,7.57
2019-05-30T08:37:15.158Z,6.27
2019-05-30T08:39:41.896Z,8.37
2019-05-30T08:42:08.665Z,5.23
2019-05-30T08:44:36.489Z,4.57
2019-05-30T08:47:03.364Z,6.03
2019-05-30T08:49:34.032Z,5.60
2019-05-30T08:52:00.996Z,4.57
2019-05-30T08:54:27.699Z,5.37
2019-05-30T08:56:54.400Z,6.63
2019-05-30T09:00:18.334Z,9.97
2019-05-30T09:02:45.128Z,7.10
2019-05-30T09:05:12.465Z,6.40
2019-05-30T09:07:57.716Z,6.63
2019-05-30T09:10:24.679Z,5.50
2019-05-30T09:12:51.371Z,5.27
2019-05-30T09:15:21.884Z,6.60
2019-05-30T09:17:48.113Z,11.23
2019-05-30T09:20:15.634Z,3.93
2019-05-30T09:22:43.759Z,4.33
2019-05-30T09:25:12.735Z,5.30
2019-05-30T09:27:40.867Z,3.70
2019-05-30T09:30:13.320Z,4.03
2019-05-30T09:32:41.291Z,2.50
2019-05-30T09:35:10.475Z,5.53
2019-05-30T09:37:37.144Z,9.97
2019-05-30T09:40:28.205Z,4.67
2019-05-30T09:42:54.795Z,3.27
2019-05-30T09:45:52.416Z,4.13
2019-05-30T09:48:19.139Z,5.83
2019-05-30T09:50:46.789Z,6.67
2019-05-30T09:53:13.824Z,4.13
2019-05-30T09:55:41.588Z,3.73
2019-05-30T09:58:09.297Z,2.43
2019-05-30T10:00:36.333Z,2.77
2019-05-30T10:03:03.960Z,4.93
2019-05-30T10:05:30.602Z,2.80
2019-05-30T10:07:57.163Z,6.63
2019-05-30T10:10:24.447Z,4.27
2019-05-30T10:12:52.501Z,2.00
2019-05-30T10:15:22.032Z,6.17
2019-05-30T10:17:50.084Z,5.23
2019-05-30T10:20:19.026Z,8.43
2019-05-30T10:22:47.045Z,4.10
2019-05-30T10:25:15.211Z,2.73
2019-05-30T10:27:43.363Z,4.83
2019-05-30T10:30:12.264Z,5.60
2019-05-30T10:32:39.112Z,5.23
2019-05-30T10:35:07.615Z,2.73
2019-05-30T10:37:34.513Z,8.07
2019-05-30T10:40:05.569Z,4.27
2019-05-30T10:42:32.464Z,2.50
2019-05-30T10:44:59.183Z,3.67
2019-05-30T10:47:26.159Z,4.67
2019-05-30T10:49:53.585Z,5.13
2019-05-30T10:52:20.550Z,3.87
2019-05-30T10:54:47.920Z,5.73
2019-05-30T10:57:14.861Z,3.40
2019-05-30T10:59:41.607Z,1.53
2019-05-30T11:02:08.387Z,3.13
2019-05-30T11:04:35.361Z,10.07
2019-05-30T11:07:11.761Z,3.47
2019-05-30T11:09:42.193Z,4.53
2019-05-30T11:12:08.849Z,3.90
2019-05-30T11:14:35.419Z,2.83
2019-05-30T11:17:02.080Z,4.27
2019-05-30T11:19:28.809Z,2.37
2019-05-30T11:21:56.255Z,4.40
2019-05-30T11:24:23.504Z,2.63
2019-05-30T11:26:50.970Z,2.13
2019-05-30T11:29:18.784Z,2.90
2019-05-30T11:31:45.407Z,4.33
2019-05-30T11:34:12.381Z,4.70
2019-05-30T11:36:39.233Z,3.27
2019-05-30T11:39:06.111Z,2.37
2019-05-30T11:41:32.943Z,1.43
2019-05-30T11:44:03.310Z,5.93
2019-05-30T11:46:28.421Z,5.00
2019-05-30T11:48:55.691Z,2.00
2019-05-30T11:51:22.590Z,4.40
2019-05-30T11:53:49.777Z,6.37
2019-05-30T11:56:16.541Z,5.50
2019-05-30T11:58:43.346Z,5.87
2019-05-30T12:01:10.151Z,2.87
2019-05-30T12:03:38.740Z,5.90
2019-05-30T12:06:05.508Z,2.10
2019-05-30T12:08:32.260Z,6.80
2019-05-30T12:11:01.233Z,4.50
2019-05-30T12:13:28.307Z,2.87
2019-05-30T12:15:55.414Z,2.30
2019-05-30T12:18:22.459Z,4.30
2019-05-30T12:20:49.209Z,4.03
2019-05-30T12:23:15.772Z,3.27
2019-05-30T12:25:42.608Z,2.83
2019-05-30T12:29:06.172Z,4.43
2019-05-30T12:31:32.898Z,2.33
2019-05-30T12:34:02.858Z,4.57
2019-05-30T12:36:29.897Z,5.40
2019-05-30T12:38:56.688Z,3.30
2019-05-30T12:41:23.722Z,2.93
2019-05-30T12:43:52.944Z,1.53
2019-05-30T12:46:19.740Z,4.20
2019-05-30T12:48:46.356Z,2.47
2019-05-30T12:51:13.200Z,3.77
2019-05-30T12:53:39.803Z,1.23
2019-05-30T12:56:06.853Z,3.27
2019-05-30T12:58:34.044Z,3.13
2019-05-30T13:01:00.980Z,3.43
2019-05-30T13:03:27.766Z,5.60
2019-05-30T13:05:55.082Z,2.70
2019-05-30T13:08:23.349Z,6.23
2019-05-30T13:10:50.012Z,4.87
2019-05-30T13:13:16.872Z,6.33
2019-05-30T13:15:43.601Z,3.30
2019-05-30T13:18:10.327Z,5.57
2019-05-30T13:20:37.307Z,5.77
2019-05-30T13:23:04.762Z,2.03
2019-05-30T13:25:31.921Z,6.47
2019-05-30T13:28:03.284Z,6.07
2019-05-30T13:30:27.721Z,2.30
2019-05-30T13:32:54.319Z,3.57
2019-05-30T13:35:21.287Z,2.00
2019-05-30T13:37:47.913Z,1.97
2019-05-30T13:40:24.803Z,3.73
2019-05-30T13:42:46.058Z,2.33
2019-05-30T13:46:08.911Z,1.93
2019-05-30T13:48:35.579Z,4.33
2019-05-30T13:51:03.281Z,4.57
2019-05-30T13:53:30.184Z,2.30
2019-05-30T13:55:57.012Z,2.00
2019-05-30T13:59:22.159Z,2.20
2019-05-30T14:01:48.915Z,2.93
2019-05-30T14:04:15.809Z,5.53
2019-05-30T14:06:42.956Z,2.50
2019-05-30T14:09:10.473Z,3.93
2019-05-30T14:11:37.496Z,3.00
2019-05-30T14:14:06.746Z,7.10
2019-05-30T14:16:34.059Z,2.67
2019-05-30T14:19:01.061Z,3.10
2019-05-30T14:21:29.885Z,5.10
2019-05-30T14:23:56.458Z,1.83
2019-05-30T14:26:41.821Z,2.30
2019-05-30T14:29:09.771Z,3.30
2019-05-30T14:31:36.990Z,2.43
2019-05-30T14:34:04.352Z,2.63
2019-05-30T14:36:31.288Z,2.63
2019-05-30T14:38:59.099Z,7.97
2019-05-30T14:41:26.061Z,6.17
2019-05-30T14:43:52.791Z,3.03
2019-05-30T14:46:19.849Z,4.13
2019-05-30T14:48:46.701Z,3.63
2019-05-30T14:51:13.444Z,4.33
2019-05-30T14:53:40.288Z,3.17
2019-05-30T14:56:06.988Z,2.63
2019-05-30T14:58:33.708Z,4.00
2019-05-30T15:01:00.486Z,2.13
2019-05-30T15:03:27.409Z,5.77
2019-05-30T15:05:55.667Z,5.20
2019-05-30T15:08:22.422Z,5.83
2019-05-30T15:10:49.113Z,2.70
2019-05-30T15:13:15.861Z,4.20
2019-05-30T15:15:44.142Z,1.93
2019-05-30T15:18:11.405Z,3.87
2019-05-30T15:20:38.482Z,4.37
2019-05-30T15:23:05.487Z,4.27
2019-05-30T15:25:32.743Z,3.70
2019-05-30T15:27:59.508Z,3.53
2019-05-30T15:30:26.307Z,3.43
2019-05-30T15:32:53.089Z,3.80
2019-05-30T15:35:20.125Z,2.80
2019-05-30T15:37:48.524Z,6.23
2019-05-30T15:40:17.946Z,2.53
2019-05-30T15:42:44.538Z,1.87
2019-05-30T15:45:14.162Z,6.00
2019-05-30T15:47:40.865Z,3.83
2019-05-30T15:50:10.493Z,3.70
2019-05-30T15:52:38.049Z,5.23
2019-05-30T15:55:09.095Z,3.57
2019-05-30T15:57:36.382Z,5.03
2019-05-30T16:00:07.721Z,3.87
2019-05-30T16:02:34.422Z,2.33
2019-05-30T16:05:01.409Z,8.13
2019-05-30T16:07:32.506Z,4.30
2019-05-30T16:09:59.696Z,5.53
2019-05-30T16:12:26.386Z,6.83
2019-05-30T16:14:53.150Z,3.50
2019-05-30T16:17:19.988Z,3.70
2019-05-30T16:19:46.629Z,3.93
2019-05-30T16:22:14.294Z,2.77
2019-05-30T16:24:41.609Z,3.93
2019-05-30T16:27:08.186Z,1.73
2019-05-30T16:29:34.860Z,2.97
2019-05-30T16:32:01.674Z,5.00
2019-05-30T16:34:28.584Z,5.23
2019-05-30T16:36:55.230Z,3.60
2019-05-30T16:39:22.577Z,5.43
2019-05-30T16:41:49.318Z,8.93
2019-05-30T16:44:16.259Z,4.93
2019-05-30T16:46:43.252Z,7.47
2019-05-30T16:49:09.963Z,3.20
2019-05-30T16:51:37.098Z,9.33
2019-05-30T16:54:04.974Z,4.63
2019-05-30T16:56:31.887Z,6.43
2019-05-30T16:58:58.855Z,6.93
2019-05-30T17:01:26.113Z,6.40
2019-05-30T17:03:53.051Z,8.93
2019-05-30T17:06:20.035Z,2.90
2019-05-30T17:08:46.790Z,6.67
2019-05-30T17:11:13.510Z,6.73
2019-05-30T17:13:40.132Z,6.53
2019-05-30T17:16:06.762Z,3.60
2019-05-30T17:18:33.499Z,7.80
2019-05-30T17:21:00.379Z,5.80
2019-05-30T17:23:27.280Z,4.70
2019-05-30T17:25:54.149Z,6.20
2019-05-30T17:28:22.312Z,6.00
2019-05-30T17:30:49.694Z,5.53
2019-05-30T17:33:19.619Z,6.03
2019-05-30T17:35:45.392Z,6.93
2019-05-30T17:38:11.975Z,9.00
2019-05-30T17:40:44.603Z,10.47
2019-05-30T17:43:07.351Z,7.70
2019-05-30T17:45:34.417Z,17.27
2019-05-30T17:48:15.611Z,9.63
2019-05-30T17:50:30.215Z,9.00
2019-05-30T17:52:57.384Z,10.83
2019-05-30T17:55:24.274Z,6.27
2019-05-30T17:57:51.179Z,14.47
2019-05-30T18:00:18.393Z,3.83
2019-05-30T18:02:45.433Z,6.67
2019-05-30T18:05:13.446Z,11.43
2019-05-30T18:07:40.284Z,11.77
2019-05-30T18:10:07.990Z,10.57
2019-05-30T18:12:35.172Z,7.30
2019-05-30T18:15:05.854Z,7.40
2019-05-30T18:17:32.748Z,3.97
2019-05-30T18:20:00.043Z,8.83
2019-05-30T18:22:27.574Z,7.53
2019-05-30T18:24:54.913Z,8.97
2019-05-30T18:27:21.720Z,5.43
2019-05-30T18:29:49.180Z,3.37
2019-05-30T18:32:16.909Z,11.17
2019-05-30T18:34:43.737Z,11.07
2019-05-30T18:37:10.797Z,12.90
2019-05-30T18:39:37.705Z,8.37
2019-05-30T18:42:05.003Z,12.37
2019-05-30T18:44:33.184Z,10.47
2019-05-30T18:47:00.774Z,11.27
2019-05-30T18:49:27.518Z,12.43
2019-05-30T18:51:54.347Z,9.27
2019-05-30T18:54:22.927Z,5.57
2019-05-30T18:56:49.634Z,4.60
2019-05-30T18:59:16.606Z,5.77
2019-05-30T19:01:46.210Z,5.07
2019-05-30T19:04:13.100Z,7.83
2019-05-30T19:06:40.120Z,8.27
2019-05-30T19:09:07.187Z,5.37
2019-05-30T19:11:36.340Z,9.33
2019-05-30T19:14:04.077Z,3.57
2019-05-30T19:16:32.325Z,5.93
2019-05-30T19:18:59.968Z,8.57
2019-05-30T19:21:27.921Z,8.47
2019-05-30T19:23:56.391Z,7.93
2019-05-30T19:26:23.153Z,6.03
2019-05-30T19:28:50.393Z,5.90
2019-05-30T19:31:17.174Z,6.97
2019-05-30T19:33:44.190Z,10.80
2019-05-30T19:36:11.099Z,9.37
2019-05-30T19:38:38.245Z,5.07
2019-05-30T19:41:05.219Z,8.53
2019-05-30T19:43:33.795Z,11.47
2019-05-30T19:46:01.078Z,7.33
2019-05-30T19:48:28.278Z,10.77
2019-05-30T19:50:55.531Z,9.47
2019-05-30T19:53:22.372Z,13.67
2019-05-30T19:55:49.338Z,12.20
2019-05-30T19:58:19.575Z,8.03
2019-05-30T20:00:57.783Z,10.63
2019-05-30T20:03:15.223Z,12.17
2019-05-30T20:05:42.154Z,14.17
2019-05-30T20:08:08.788Z,18.77
2019-05-30T20:10:35.609Z,14.60
2019-05-30T20:13:02.230Z,20.40
2019-05-30T20:15:29.015Z,13.80
2019-05-30T20:17:55.639Z,14.43
2019-05-30T20:20:22.486Z,14.77
2019-05-30T20:22:49.227Z,22.60
2019-05-30T20:25:17.596Z,16.77
2019-05-30T20:27:44.325Z,21.50
2019-05-30T20:30:13.975Z,16.70
2019-05-30T20:32:40.845Z,18.77
2019-05-30T20:35:09.597Z,14.17
2019-05-30T20:37:36.750Z,15.67
2019-05-30T20:40:06.614Z,19.00
2019-05-30T20:42:34.650Z,18.60
2019-05-30T20:45:06.000Z,13.90
2019-05-30T20:47:35.921Z,18.63
2019-05-30T20:50:06.037Z,13.80
2019-05-30T20:52:32.879Z,13.87
2019-05-30T20:54:59.649Z,20.13
2019-05-30T20:57:26.563Z,16.03
2019-05-30T20:59:53.381Z,11.57
2019-05-30T21:02:20.264Z,19.47
2019-05-30T21:04:47.507Z,12.00
2019-05-30T21:07:15.575Z,18.07
2019-05-30T21:09:44.212Z,17.37
2019-05-30T21:12:14.209Z,16.20
2019-05-30T21:14:45.913Z,18.87
2019-05-30T21:17:15.287Z,16.47
2019-05-30T21:19:46.019Z,16.53
2019-05-30T21:22:13.169Z,11.27
2019-05-30T21:24:40.671Z,14.43
2019-05-30T21:27:07.451Z,12.53
2019-05-30T21:29:34.215Z,17.17
2019-05-30T21:32:01.276Z,21.10
2019-05-30T21:34:28.256Z,16.10
2019-05-30T21:36:55.086Z,15.30
2019-05-30T21:39:21.861Z,17.00
2019-05-30T21:41:48.610Z,13.37
2019-05-30T21:44:15.676Z,15.87
2019-05-30T21:46:42.621Z,12.00
2019-05-30T21:49:09.681Z,11.60
2019-05-30T21:51:39.220Z,15.20
2019-05-30T21:54:06.236Z,8.77
2019-05-30T21:56:32.945Z,16.27
2019-05-30T21:58:59.567Z,14.03
2019-05-30T22:01:31.457Z,15.93
2019-05-30T22:03:58.462Z,17.03
2019-05-30T22:06:25.376Z,11.87
2019-05-30T22:08:51.991Z,12.97
2019-05-30T22:11:19.621Z,15.47
2019-05-30T22:13:47.561Z,11.20
2019-05-30T22:16:14.986Z,13.17
2019-05-30T22:18:41.914Z,13.97
2019-05-30T22:21:08.876Z,11.03
2019-05-30T22:23:35.766Z,9.13
2019-05-30T22:26:02.602Z,11.77
2019-05-30T22:28:29.306Z,8.73
2019-05-30T22:30:55.958Z,13.53
2019-05-30T22:33:22.916Z,9.97
2019-05-30T22:35:49.494Z,13.23
2019-05-30T22:38:16.148Z,19.20
2019-05-30T22:40:43.755Z,11.13
2019-05-30T22:43:24.481Z,8.00
2019-05-30T22:45:39.278Z,13.30
2019-05-30T22:48:05.899Z,14.67
2019-05-30T22:50:33.648Z,10.83
2019-05-30T22:53:00.442Z,10.00
2019-05-30T22:55:27.074Z,14.80
2019-05-30T22:57:53.695Z,11.87
2019-05-30T23:00:20.686Z,8.70
2019-05-30T23:02:47.882Z,11.97
2019-05-30T23:05:14.900Z,13.70
2019-05-30T23:07:41.493Z,9.77
2019-05-30T23:10:08.663Z,13.00
2019-05-30T23:12:35.276Z,13.43
2019-05-30T23:15:05.298Z,8.33
2019-05-30T23:17:32.140Z,8.70
2019-05-30T23:19:58.794Z,12.20
2019-05-30T23:22:25.668Z,9.60
2019-05-30T23:24:53.871Z,9.40
2019-05-30T23:27:23.700Z,11.80
2019-05-30T23:29:51.688Z,11.67
2019-05-30T23:32:18.828Z,17.20
2019-05-30T23:34:48.111Z,9.47
2019-05-30T23:37:15.047Z,11.60
2019-05-30T23:39:41.805Z,7.83
2019-05-30T23:42:08.541Z,8.57
2019-05-30T23:44:35.332Z,7.80
2019-05-30T23:47:01.966Z,8.10
2019-05-30T23:49:28.736Z,10.17
2019-05-30T23:51:56.215Z,9.13
2019-05-30T23:54:23.484Z,10.17
2019-05-30T23:56:50.525Z,8.90
2019-05-30T23:59:17.422Z,13.03
